Terminal Aerodrome Forecast
Issued by NWS Wilmington, OH

Current Version | Previous Version | Graphics & Text | Print | Product List | Glossary On
Versions: 1 2 3 4 5 6 7 8 9 10 11 12 13 14 15 16 17 18 19
000
FTUS41 KILN 292300 RRA
TAFCMH
TAF
KCMH 292343Z 3000/3024 17011KT P6SM OVC090
     FM300100 19011KT P6SM -SHRA BKN040 OVC080
     FM300300 21012KT P6SM BKN040 OVC080
     FM300600 25014KT P6SM VCSH SCT025 BKN040
     FM300800 28012G20KT P6SM BKN022
     FM301100 29012KT P6SM SCT025
     FM301700 29014G22KT P6SM SCT040=

USA.gov is the U.S. government's official web portal to all federal, state and local government web resources and services.